sensor_id;sensor_type;location;lat;lon;timestamp;pressure;altitude;pressure_sealevel;temperature;humidity
64343;BME280;50675;53.530;-6.312;2022-07-29T00:00:09;101151.25;;;15.67;60.25
64343;BME280;50675;53.530;-6.312;2022-07-29T00:02:36;101158.03;;;15.64;60.29
64343;BME280;50675;53.530;-6.312;2022-07-29T00:05:03;101156.94;;;15.60;60.17
64343;BME280;50675;53.530;-6.312;2022-07-29T00:07:28;101159.66;;;15.60;60.11
64343;BME280;50675;53.530;-6.312;2022-07-29T00:09:54;101163.75;;;15.58;60.25
64343;BME280;50675;53.530;-6.312;2022-07-29T00:12:21;101162.38;;;15.55;60.16
64343;BME280;50675;53.530;-6.312;2022-07-29T00:14:48;101160.69;;;15.49;60.34
64343;BME280;50675;53.530;-6.312;2022-07-29T00:17:13;101148.97;;;15.44;60.43
64343;BME280;50675;53.530;-6.312;2022-07-29T00:19:39;101165.03;;;15.45;60.38
64343;BME280;50675;53.530;-6.312;2022-07-29T00:22:05;101165.56;;;15.42;60.36
64343;BME280;50675;53.530;-6.312;2022-07-29T00:24:30;101171.00;;;15.42;60.49
64343;BME280;50675;53.530;-6.312;2022-07-29T00:26:56;101156.59;;;15.42;60.65
64343;BME280;50675;53.530;-6.312;2022-07-29T00:29:22;101161.78;;;15.43;60.49
64343;BME280;50675;53.530;-6.312;2022-07-29T00:31:48;101163.09;;;15.41;60.55
64343;BME280;50675;53.530;-6.312;2022-07-29T00:34:13;101158.47;;;15.41;60.50
64343;BME280;50675;53.530;-6.312;2022-07-29T00:36:58;101159.31;;;15.42;60.43
64343;BME280;50675;53.530;-6.312;2022-07-29T00:39:23;101161.22;;;15.41;60.45
64343;BME280;50675;53.530;-6.312;2022-07-29T00:41:50;101157.41;;;15.42;60.67
64343;BME280;50675;53.530;-6.312;2022-07-29T00:44:16;101155.25;;;15.44;60.70
64343;BME280;50675;53.530;-6.312;2022-07-29T00:46:41;101153.31;;;15.45;60.56
64343;BME280;50675;53.530;-6.312;2022-07-29T00:49:07;101154.13;;;15.40;60.57
64343;BME280;50675;53.530;-6.312;2022-07-29T00:51:37;101146.25;;;15.39;60.60
64343;BME280;50675;53.530;-6.312;2022-07-29T00:54:04;101151.97;;;15.42;60.70
64343;BME280;50675;53.530;-6.312;2022-07-29T00:56:31;101144.88;;;15.46;60.56
64343;BME280;50675;53.530;-6.312;2022-07-29T00:58:57;101149.00;;;15.49;60.98
64343;BME280;50675;53.530;-6.312;2022-07-29T01:01:24;101148.75;;;15.60;61.10
64343;BME280;50675;53.530;-6.312;2022-07-29T01:03:50;101138.16;;;15.69;60.82
64343;BME280;50675;53.530;-6.312;2022-07-29T01:06:19;101147.41;;;15.73;61.00
64343;BME280;50675;53.530;-6.312;2022-07-29T01:08:47;101137.34;;;15.68;60.86
64343;BME280;50675;53.530;-6.312;2022-07-29T01:11:15;101135.19;;;15.75;60.94
64343;BME280;50675;53.530;-6.312;2022-07-29T01:13:43;101133.53;;;15.80;61.07
64343;BME280;50675;53.530;-6.312;2022-07-29T01:16:17;101137.66;;;15.82;61.00
64343;BME280;50675;53.530;-6.312;2022-07-29T01:18:46;101138.19;;;15.84;61.12
64343;BME280;50675;53.530;-6.312;2022-07-29T01:24:33;101140.91;;;15.89;61.13
64343;BME280;50675;53.530;-6.312;2022-07-29T01:27:12;101139.56;;;15.92;61.23
64343;BME280;50675;53.530;-6.312;2022-07-29T01:29:44;101137.63;;;15.92;61.25
64343;BME280;50675;53.530;-6.312;2022-07-29T01:32:14;101136.28;;;15.95;61.12
64343;BME280;50675;53.530;-6.312;2022-07-29T01:37:23;101141.47;;;15.91;61.15
64343;BME280;50675;53.530;-6.312;2022-07-29T01:39:52;101141.44;;;16.01;61.17
64343;BME280;50675;53.530;-6.312;2022-07-29T01:42:34;101136.00;;;16.01;61.32
64343;BME280;50675;53.530;-6.312;2022-07-29T01:48:23;101143.66;;;16.04;61.37
64343;BME280;50675;53.530;-6.312;2022-07-29T01:50:53;101142.25;;;16.02;61.37
64343;BME280;50675;53.530;-6.312;2022-07-29T01:53:31;101140.09;;;16.04;61.46
64343;BME280;50675;53.530;-6.312;2022-07-29T01:55:59;101146.09;;;16.06;61.32
64343;BME280;50675;53.530;-6.312;2022-07-29T01:58:27;101146.91;;;15.96;61.39
64343;BME280;50675;53.530;-6.312;2022-07-29T02:00:56;101142.81;;;16.04;61.45
64343;BME280;50675;53.530;-6.312;2022-07-29T02:03:23;101141.44;;;16.06;61.29
64343;BME280;50675;53.530;-6.312;2022-07-29T02:05:50;101140.38;;;16.07;61.50
64343;BME280;50675;53.530;-6.312;2022-07-29T02:08:18;101136.56;;;16.08;61.50
64343;BME280;50675;53.530;-6.312;2022-07-29T02:10:47;101138.19;;;16.09;61.65
64343;BME280;50675;53.530;-6.312;2022-07-29T02:13:15;101141.44;;;16.11;61.55
64343;BME280;50675;53.530;-6.312;2022-07-29T02:15:42;101137.63;;;16.12;61.61
64343;BME280;50675;53.530;-6.312;2022-07-29T02:18:20;101134.91;;;16.02;61.83
64343;BME280;50675;53.530;-6.312;2022-07-29T02:20:51;101135.19;;;16.11;61.69
64343;BME280;50675;53.530;-6.312;2022-07-29T02:23:22;101131.94;;;16.14;61.79
64343;BME280;50675;53.530;-6.312;2022-07-29T02:25:50;101137.38;;;16.19;61.79
64343;BME280;50675;53.530;-6.312;2022-07-29T02:28:18;101129.72;;;16.21;61.74
64343;BME280;50675;53.530;-6.312;2022-07-29T02:30:46;101131.38;;;16.22;61.79
64343;BME280;50675;53.530;-6.312;2022-07-29T02:33:16;101133.28;;;16.27;61.80
64343;BME280;50675;53.530;-6.312;2022-07-29T02:35:44;101138.47;;;16.28;61.99
64343;BME280;50675;53.530;-6.312;2022-07-29T02:38:15;101140.63;;;16.31;62.09
64343;BME280;50675;53.530;-6.312;2022-07-29T02:41:03;101133.00;;;16.33;61.83
64343;BME280;50675;53.530;-6.312;2022-07-29T02:43:30;101141.19;;;16.33;61.95
64343;BME280;50675;53.530;-6.312;2022-07-29T02:45:59;101134.34;;;16.36;62.05
64343;BME280;50675;53.530;-6.312;2022-07-29T02:48:41;101131.63;;;16.36;62.09
64343;BME280;50675;53.530;-6.312;2022-07-29T02:51:18;101137.63;;;16.38;62.07
64343;BME280;50675;53.530;-6.312;2022-07-29T02:53:49;101133.00;;;16.38;62.12
64343;BME280;50675;53.530;-6.312;2022-07-29T02:56:20;101128.38;;;16.29;62.08
64343;BME280;50675;53.530;-6.312;2022-07-29T02:58:54;101139.81;;;16.36;62.19
64343;BME280;50675;53.530;-6.312;2022-07-29T03:01:23;101129.19;;;16.39;62.04
64343;BME280;50675;53.530;-6.312;2022-07-29T03:03:52;101126.97;;;16.41;62.25
64343;BME280;50675;53.530;-6.312;2022-07-29T03:06:21;101130.25;;;16.43;62.27
64343;BME280;50675;53.530;-6.312;2022-07-29T03:08:48;101134.59;;;16.44;62.40
64343;BME280;50675;53.530;-6.312;2022-07-29T03:11:15;101120.19;;;16.39;62.33
64343;BME280;50675;53.530;-6.312;2022-07-29T03:13:42;101129.16;;;16.44;62.50
64343;BME280;50675;53.530;-6.312;2022-07-29T03:16:09;101132.44;;;16.46;62.47
64343;BME280;50675;53.530;-6.312;2022-07-29T03:18:36;101126.97;;;16.46;62.48
64343;BME280;50675;53.530;-6.312;2022-07-29T03:21:03;101138.44;;;16.48;62.67
64343;BME280;50675;53.530;-6.312;2022-07-29T03:23:29;101132.97;;;16.48;62.44
64343;BME280;50675;53.530;-6.312;2022-07-29T03:25:55;101123.97;;;16.48;62.55
64343;BME280;50675;53.530;-6.312;2022-07-29T03:28:21;101120.97;;;16.49;62.64
64343;BME280;50675;53.530;-6.312;2022-07-29T03:30:47;101117.16;;;16.50;62.57
64343;BME280;50675;53.530;-6.312;2022-07-29T03:33:13;101122.59;;;16.50;62.70
64343;BME280;50675;53.530;-6.312;2022-07-29T03:35:39;101120.44;;;16.52;62.75
64343;BME280;50675;53.530;-6.312;2022-07-29T03:38:05;101117.97;;;16.51;62.76
64343;BME280;50675;53.530;-6.312;2022-07-29T03:40:37;101128.59;;;16.57;62.83
64343;BME280;50675;53.530;-6.312;2022-07-29T03:43:05;101126.97;;;16.56;62.94
64343;BME280;50675;53.530;-6.312;2022-07-29T03:45:33;101134.59;;;16.59;62.87
64343;BME280;50675;53.530;-6.312;2022-07-29T03:48:05;101130.78;;;16.60;63.00
64343;BME280;50675;53.530;-6.312;2022-07-29T03:50:32;101128.63;;;16.63;62.87
64343;BME280;50675;53.530;-6.312;2022-07-29T03:52:59;101129.13;;;16.65;62.63
64343;BME280;50675;53.530;-6.312;2022-07-29T03:55:28;101135.16;;;16.67;62.97
64343;BME280;50675;53.530;-6.312;2022-07-29T03:57:55;101136.50;;;16.69;63.13
64343;BME280;50675;53.530;-6.312;2022-07-29T04:00:23;101125.88;;;16.68;63.05
64343;BME280;50675;53.530;-6.312;2022-07-29T04:02:49;101134.03;;;16.73;63.09
64343;BME280;50675;53.530;-6.312;2022-07-29T04:05:17;101138.13;;;16.75;63.15
64343;BME280;50675;53.530;-6.312;2022-07-29T04:07:44;101146.03;;;16.77;63.24
64343;BME280;50675;53.530;-6.312;2022-07-29T04:10:10;101149.28;;;16.79;63.24
64343;BME280;50675;53.530;-6.312;2022-07-29T04:12:36;101147.13;;;16.76;63.34
64343;BME280;50675;53.530;-6.312;2022-07-29T04:15:05;101146.03;;;16.77;63.29
64343;BME280;50675;53.530;-6.312;2022-07-29T04:17:31;101147.66;;;16.78;63.41
64343;BME280;50675;53.530;-6.312;2022-07-29T04:19:56;101146.03;;;16.82;63.32
64343;BME280;50675;53.530;-6.312;2022-07-29T04:22:22;101147.63;;;16.83;63.37
64343;BME280;50675;53.530;-6.312;2022-07-29T04:24:48;101147.94;;;16.81;63.49
64343;BME280;50675;53.530;-6.312;2022-07-29T04:27:14;101161.03;;;16.79;63.75
64343;BME280;50675;53.530;-6.312;2022-07-29T04:29:39;101151.47;;;16.82;63.52
64343;BME280;50675;53.530;-6.312;2022-07-29T04:32:05;101162.38;;;16.87;63.81
64343;BME280;50675;53.530;-6.312;2022-07-29T04:34:31;101149.00;;;16.85;63.68
64343;BME280;50675;53.530;-6.312;2022-07-29T04:36:57;101153.66;;;16.85;63.83
64343;BME280;50675;53.530;-6.312;2022-07-29T04:39:23;101149.84;;;16.76;63.77
64343;BME280;50675;53.530;-6.312;2022-07-29T04:41:49;101160.75;;;16.81;63.90
64343;BME280;50675;53.530;-6.312;2022-07-29T04:44:16;101156.38;;;16.85;63.79
64343;BME280;50675;53.530;-6.312;2022-07-29T04:46:41;101158.00;;;16.86;64.03
64343;BME280;50675;53.530;-6.312;2022-07-29T04:49:07;101161.84;;;16.85;63.99
64343;BME280;50675;53.530;-6.312;2022-07-29T04:51:33;101161.28;;;16.83;63.91
64343;BME280;50675;53.530;-6.312;2022-07-29T04:53:59;101162.91;;;16.84;64.15
64343;BME280;50675;53.530;-6.312;2022-07-29T04:56:25;101164.56;;;16.85;64.12
64343;BME280;50675;53.530;-6.312;2022-07-29T04:58:51;101161.84;;;16.85;64.26
64343;BME280;50675;53.530;-6.312;2022-07-29T05:01:17;101152.00;;;16.84;64.22
64343;BME280;50675;53.530;-6.312;2022-07-29T05:03:42;101150.91;;;16.85;64.39
64343;BME280;50675;53.530;-6.312;2022-07-29T05:06:09;101154.47;;;16.85;64.32
64343;BME280;50675;53.530;-6.312;2022-07-29T05:08:34;101152.56;;;16.86;64.44
64343;BME280;50675;53.530;-6.312;2022-07-29T05:11:00;101151.16;;;16.88;64.50
64343;BME280;50675;53.530;-6.312;2022-07-29T05:13:26;101159.66;;;16.87;64.45
64343;BME280;50675;53.530;-6.312;2022-07-29T05:15:55;101148.75;;;16.82;64.56
64343;BME280;50675;53.530;-6.312;2022-07-29T05:18:24;101154.72;;;16.84;64.56
64343;BME280;50675;53.530;-6.312;2022-07-29T05:20:50;101157.44;;;16.89;64.74
64343;BME280;50675;53.530;-6.312;2022-07-29T05:23:16;101159.09;;;16.90;64.80
64343;BME280;50675;53.530;-6.312;2022-07-29T05:25:42;101153.63;;;16.90;64.90
64343;BME280;50675;53.530;-6.312;2022-07-29T05:28:09;101156.88;;;16.92;64.83
64343;BME280;50675;53.530;-6.312;2022-07-29T05:30:34;101146.78;;;16.92;64.73
64343;BME280;50675;53.530;-6.312;2022-07-29T05:33:00;101146.53;;;16.94;65.05
64343;BME280;50675;53.530;-6.312;2022-07-29T05:35:26;101148.69;;;16.97;65.08
64343;BME280;50675;53.530;-6.312;2022-07-29T05:37:52;101143.22;;;16.97;64.98
64343;BME280;50675;53.530;-6.312;2022-07-29T05:40:17;101145.41;;;17.00;64.99
64343;BME280;50675;53.530;-6.312;2022-07-29T05:42:43;101157.66;;;17.02;65.17
64343;BME280;50675;53.530;-6.312;2022-07-29T05:45:09;101154.66;;;17.04;65.34
64343;BME280;50675;53.530;-6.312;2022-07-29T05:47:35;101157.41;;;17.04;65.25
64343;BME280;50675;53.530;-6.312;2022-07-29T05:50:01;101159.03;;;17.10;65.37
64343;BME280;50675;53.530;-6.312;2022-07-29T05:52:27;101164.72;;;17.14;65.25
64343;BME280;50675;53.530;-6.312;2022-07-29T05:54:52;101165.31;;;17.11;65.47
64343;BME280;50675;53.530;-6.312;2022-07-29T05:57:20;101164.97;;;17.17;65.48
64343;BME280;50675;53.530;-6.312;2022-07-29T05:59:47;101162.81;;;17.19;65.43
64343;BME280;50675;53.530;-6.312;2022-07-29T06:02:13;101153.50;;;17.20;65.65
64343;BME280;50675;53.530;-6.312;2022-07-29T06:04:39;101167.94;;;17.26;65.45
64343;BME280;50675;53.530;-6.312;2022-07-29T06:07:05;101163.03;;;17.28;65.63
64343;BME280;50675;53.530;-6.312;2022-07-29T06:09:32;101152.09;;;17.33;65.60
64343;BME280;50675;53.530;-6.312;2022-07-29T06:11:58;101153.16;;;17.37;65.55
64343;BME280;50675;53.530;-6.312;2022-07-29T06:14:24;101161.06;;;17.38;65.51
64343;BME280;50675;53.530;-6.312;2022-07-29T06:16:50;101152.84;;;17.43;65.85
64343;BME280;50675;53.530;-6.312;2022-07-29T06:19:16;101153.34;;;17.50;65.83
64343;BME280;50675;53.530;-6.312;2022-07-29T06:21:46;101158.25;;;17.54;65.85
64343;BME280;50675;53.530;-6.312;2022-07-29T06:24:13;101153.88;;;17.58;65.89
64343;BME280;50675;53.530;-6.312;2022-07-29T06:26:40;101151.94;;;17.58;65.71
64343;BME280;50675;53.530;-6.312;2022-07-29T06:29:07;101159.34;;;17.58;65.84
64343;BME280;50675;53.530;-6.312;2022-07-29T06:31:32;101159.84;;;17.65;65.94
64343;BME280;50675;53.530;-6.312;2022-07-29T06:33:58;101165.56;;;17.68;65.84
64343;BME280;50675;53.530;-6.312;2022-07-29T06:36:24;101159.00;;;17.69;65.95
64343;BME280;50675;53.530;-6.312;2022-07-29T06:38:50;101164.16;;;17.76;65.70
64343;BME280;50675;53.530;-6.312;2022-07-29T06:41:16;101167.13;;;17.79;65.99
64343;BME280;50675;53.530;-6.312;2022-07-29T06:43:44;101176.16;;;17.80;65.80
64343;BME280;50675;53.530;-6.312;2022-07-29T06:46:15;101166.88;;;17.81;66.06
64343;BME280;50675;53.530;-6.312;2022-07-29T06:48:43;101173.66;;;17.83;66.02
64343;BME280;50675;53.530;-6.312;2022-07-29T06:51:10;101175.53;;;17.88;66.13
64343;BME280;50675;53.530;-6.312;2022-07-29T06:53:37;101178.00;;;17.89;65.95
64343;BME280;50675;53.530;-6.312;2022-07-29T06:56:05;101166.50;;;17.92;66.15
64343;BME280;50675;53.530;-6.312;2022-07-29T06:58:31;101178.22;;;17.98;65.87
64343;BME280;50675;53.530;-6.312;2022-07-29T07:00:58;101176.03;;;18.00;65.79
64343;BME280;50675;53.530;-6.312;2022-07-29T07:03:26;101177.59;;;18.06;66.01
64343;BME280;50675;53.530;-6.312;2022-07-29T07:05:53;101172.09;;;18.11;66.14
64343;BME280;50675;53.530;-6.312;2022-07-29T07:08:20;101170.41;;;18.15;66.27
64343;BME280;50675;53.530;-6.312;2022-07-29T07:10:46;101174.75;;;18.21;65.82
64343;BME280;50675;53.530;-6.312;2022-07-29T07:13:12;101169.28;;;18.21;66.07
64343;BME280;50675;53.530;-6.312;2022-07-29T07:15:38;101180.13;;;18.31;66.17
64343;BME280;50675;53.530;-6.312;2022-07-29T07:18:05;101182.25;;;18.40;65.85
64343;BME280;50675;53.530;-6.312;2022-07-29T07:20:35;101180.81;;;18.47;66.02
64343;BME280;50675;53.530;-6.312;2022-07-29T07:23:01;101182.69;;;18.52;66.04
64343;BME280;50675;53.530;-6.312;2022-07-29T07:25:26;101188.59;;;18.64;65.73
64343;BME280;50675;53.530;-6.312;2022-07-29T07:27:52;101194.84;;;18.69;66.12
64343;BME280;50675;53.530;-6.312;2022-07-29T07:30:18;101185.19;;;18.77;66.09
64343;BME280;50675;53.530;-6.312;2022-07-29T07:32:44;101199.94;;;18.81;65.92
64343;BME280;50675;53.530;-6.312;2022-07-29T07:35:10;101199.03;;;18.91;65.95
64343;BME280;50675;53.530;-6.312;2022-07-29T07:37:37;101194.53;;;19.00;66.12
64343;BME280;50675;53.530;-6.312;2022-07-29T07:40:04;101193.06;;;19.07;66.06
64343;BME280;50675;53.530;-6.312;2022-07-29T07:42:30;101197.41;;;19.13;66.10
64343;BME280;50675;53.530;-6.312;2022-07-29T07:44:56;101194.28;;;19.20;65.98
64343;BME280;50675;53.530;-6.312;2022-07-29T07:47:22;101200.22;;;19.27;65.71
64343;BME280;50675;53.530;-6.312;2022-07-29T07:49:50;101205.88;;;19.36;66.08
64343;BME280;50675;53.530;-6.312;2022-07-29T07:52:18;101203.66;;;19.38;65.73
64343;BME280;50675;53.530;-6.312;2022-07-29T07:54:44;101206.34;;;19.43;65.98
64343;BME280;50675;53.530;-6.312;2022-07-29T07:57:13;101200.78;;;19.53;65.65
64343;BME280;50675;53.530;-6.312;2022-07-29T07:59:40;101208.91;;;19.58;65.45
64343;BME280;50675;53.530;-6.312;2022-07-29T08:02:07;101212.38;;;19.63;65.78
64343;BME280;50675;53.530;-6.312;2022-07-29T08:04:33;101213.13;;;19.69;65.56
64343;BME280;50675;53.530;-6.312;2022-07-29T08:07:00;101224.84;;;19.75;65.71
64343;BME280;50675;53.530;-6.312;2022-07-29T08:09:27;101219.22;;;19.85;65.43
64343;BME280;50675;53.530;-6.312;2022-07-29T08:11:53;101214.19;;;19.92;65.57
64343;BME280;50675;53.530;-6.312;2022-07-29T08:17:13;101193.13;;;20.06;65.61
64343;BME280;50675;53.530;-6.312;2022-07-29T08:19:39;101195.63;;;20.21;65.03
64343;BME280;50675;53.530;-6.312;2022-07-29T08:22:05;101192.94;;;20.35;65.27
64343;BME280;50675;53.530;-6.312;2022-07-29T08:24:30;101188.41;;;20.44;65.37
64343;BME280;50675;53.530;-6.312;2022-07-29T08:27:09;101183.66;;;20.49;65.05
64343;BME280;50675;53.530;-6.312;2022-07-29T08:29:35;101188.06;;;20.64;65.06
64343;BME280;50675;53.530;-6.312;2022-07-29T08:32:02;101186.31;;;20.68;64.94
64343;BME280;50675;53.530;-6.312;2022-07-29T08:34:27;101185.41;;;20.73;65.05
64343;BME280;50675;53.530;-6.312;2022-07-29T08:36:55;101185.66;;;20.76;64.60
64343;BME280;50675;53.530;-6.312;2022-07-29T08:39:21;101181.38;;;20.84;64.60
64343;BME280;50675;53.530;-6.312;2022-07-29T08:41:47;101177.72;;;20.88;64.61
64343;BME280;50675;53.530;-6.312;2022-07-29T08:44:15;101160.50;;;20.83;64.59
64343;BME280;50675;53.530;-6.312;2022-07-29T08:46:42;101166.72;;;20.88;64.46
64343;BME280;50675;53.530;-6.312;2022-07-29T08:49:07;101163.88;;;20.93;64.31
64343;BME280;50675;53.530;-6.312;2022-07-29T08:51:34;101156.56;;;20.89;64.29
64343;BME280;50675;53.530;-6.312;2022-07-29T08:54:01;101159.22;;;20.94;64.11
64343;BME280;50675;53.530;-6.312;2022-07-29T08:56:27;101157.66;;;21.02;63.65
64343;BME280;50675;53.530;-6.312;2022-07-29T08:58:54;101163.97;;;21.02;63.92
64343;BME280;50675;53.530;-6.312;2022-07-29T09:01:25;101177.25;;;21.14;63.76
64343;BME280;50675;53.530;-6.312;2022-07-29T09:03:55;101162.59;;;21.18;63.67
64343;BME280;50675;53.530;-6.312;2022-07-29T09:06:22;101163.16;;;21.29;63.61
64343;BME280;50675;53.530;-6.312;2022-07-29T09:08:51;101162.94;;;21.39;63.82
64343;BME280;50675;53.530;-6.312;2022-07-29T09:11:17;101169.34;;;21.48;63.32
64343;BME280;50675;53.530;-6.312;2022-07-29T09:13:43;101172.31;;;21.52;63.65
64343;BME280;50675;53.530;-6.312;2022-07-29T09:16:09;101165.25;;;21.59;63.25
64343;BME280;50675;53.530;-6.312;2022-07-29T09:18:40;101158.41;;;21.70;63.29
64343;BME280;50675;53.530;-6.312;2022-07-29T09:21:08;101167.56;;;21.79;63.09
64343;BME280;50675;53.530;-6.312;2022-07-29T09:24:07;101164.81;;;21.79;62.68
64343;BME280;50675;53.530;-6.312;2022-07-29T09:26:36;101160.31;;;21.83;62.57
64343;BME280;50675;53.530;-6.312;2022-07-29T09:31:38;101167.09;;;22.00;62.58
64343;BME280;50675;53.530;-6.312;2022-07-29T09:34:05;101176.72;;;22.11;62.28
64343;BME280;50675;53.530;-6.312;2022-07-29T09:36:38;101174.34;;;22.18;62.27
64343;BME280;50675;53.530;-6.312;2022-07-29T09:39:04;101169.53;;;22.23;62.06
64343;BME280;50675;53.530;-6.312;2022-07-29T09:41:44;101179.78;;;22.32;62.04
64343;BME280;50675;53.530;-6.312;2022-07-29T09:44:10;101173.34;;;22.36;61.68
64343;BME280;50675;53.530;-6.312;2022-07-29T09:46:36;101166.25;;;22.44;61.77
64343;BME280;50675;53.530;-6.312;2022-07-29T09:49:07;101165.31;;;22.48;61.37
64343;BME280;50675;53.530;-6.312;2022-07-29T09:51:34;101170.19;;;22.51;61.43
64343;BME280;50675;53.530;-6.312;2022-07-29T09:54:00;101163.22;;;22.54;61.34
64343;BME280;50675;53.530;-6.312;2022-07-29T09:56:42;101165.03;;;22.58;60.85
64343;BME280;50675;53.530;-6.312;2022-07-29T09:59:08;101158.84;;;22.53;60.78
64343;BME280;50675;53.530;-6.312;2022-07-29T10:01:36;101152.34;;;22.49;60.66
64343;BME280;50675;53.530;-6.312;2022-07-29T10:04:02;101143.41;;;22.43;60.78
64343;BME280;50675;53.530;-6.312;2022-07-29T10:06:28;101147.31;;;22.42;60.50
64343;BME280;50675;53.530;-6.312;2022-07-29T10:08:54;101152.22;;;22.54;60.51
64343;BME280;50675;53.530;-6.312;2022-07-29T10:11:20;101142.88;;;22.63;60.29
64343;BME280;50675;53.530;-6.312;2022-07-29T10:13:47;101153.91;;;22.63;60.04
64343;BME280;50675;53.530;-6.312;2022-07-29T10:16:14;101149.88;;;22.69;60.15
64343;BME280;50675;53.530;-6.312;2022-07-29T10:18:42;101160.72;;;22.66;59.76
64343;BME280;50675;53.530;-6.312;2022-07-29T10:21:08;101151.00;;;22.68;59.59
64343;BME280;50675;53.530;-6.312;2022-07-29T10:23:34;101150.59;;;22.75;59.52
64343;BME280;50675;53.530;-6.312;2022-07-29T10:26:02;101156.94;;;22.84;59.37
64343;BME280;50675;53.530;-6.312;2022-07-29T10:28:31;101156.28;;;22.87;59.20
64343;BME280;50675;53.530;-6.312;2022-07-29T10:31:03;101157.47;;;22.95;59.04
64343;BME280;50675;53.530;-6.312;2022-07-29T10:33:38;101151.47;;;22.93;58.81
64343;BME280;50675;53.530;-6.312;2022-07-29T10:44:33;101163.03;;;22.73;58.29
64343;BME280;50675;53.530;-6.312;2022-07-29T10:46:59;101156.81;;;22.67;58.11
64343;BME280;50675;53.530;-6.312;2022-07-29T10:49:26;101157.75;;;22.62;58.17
64343;BME280;50675;53.530;-6.312;2022-07-29T10:57:15;101164.44;;;22.61;58.03
64343;BME280;50675;53.530;-6.312;2022-07-29T10:59:43;101152.41;;;22.57;57.90
64343;BME280;50675;53.530;-6.312;2022-07-29T11:07:27;101159.22;;;22.60;57.85
64343;BME280;50675;53.530;-6.312;2022-07-29T11:15:05;101147.22;;;22.87;57.72
64343;BME280;50675;53.530;-6.312;2022-07-29T11:20:39;101155.28;;;23.14;57.45
64343;BME280;50675;53.530;-6.312;2022-07-29T11:28:51;101166.97;;;23.28;56.97
64343;BME280;50675;53.530;-6.312;2022-07-29T11:31:31;101164.84;;;23.25;56.67
64343;BME280;50675;53.530;-6.312;2022-07-29T11:34:32;101173.75;;;23.22;56.80
64343;BME280;50675;53.530;-6.312;2022-07-29T11:45:05;101156.41;;;23.13;56.03
64343;BME280;50675;53.530;-6.312;2022-07-29T11:47:33;101151.56;;;23.19;56.09
64343;BME280;50675;53.530;-6.312;2022-07-29T11:50:00;101145.22;;;23.18;56.00
64343;BME280;50675;53.530;-6.312;2022-07-29T11:52:40;101146.50;;;23.21;56.08
64343;BME280;50675;53.530;-6.312;2022-07-29T11:55:22;101148.63;;;23.24;56.01
64343;BME280;50675;53.530;-6.312;2022-07-29T12:00:34;101145.38;;;23.13;55.75
64343;BME280;50675;53.530;-6.312;2022-07-29T12:03:03;101138.53;;;23.10;55.89
64343;BME280;50675;53.530;-6.312;2022-07-29T12:05:41;101138.22;;;23.03;55.74
64343;BME280;50675;53.530;-6.312;2022-07-29T12:08:09;101138.69;;;23.05;55.71
64343;BME280;50675;53.530;-6.312;2022-07-29T12:10:37;101146.34;;;23.08;55.71
64343;BME280;50675;53.530;-6.312;2022-07-29T12:13:03;101144.25;;;23.14;55.45
64343;BME280;50675;53.530;-6.312;2022-07-29T12:15:29;101138.09;;;23.17;55.30
64343;BME280;50675;53.530;-6.312;2022-07-29T12:17:55;101139.88;;;23.22;55.27
64343;BME280;50675;53.530;-6.312;2022-07-29T12:20:29;101139.88;;;23.30;55.38
64343;BME280;50675;53.530;-6.312;2022-07-29T12:22:55;101134.22;;;23.35;55.21
64343;BME280;50675;53.530;-6.312;2022-07-29T12:25:23;101134.06;;;23.40;55.51
64343;BME280;50675;53.530;-6.312;2022-07-29T12:28:03;101132.97;;;23.50;55.17
64343;BME280;50675;53.530;-6.312;2022-07-29T12:30:53;101129.84;;;23.43;55.01
64343;BME280;50675;53.530;-6.312;2022-07-29T12:33:35;101131.66;;;23.47;55.15
64343;BME280;50675;53.530;-6.312;2022-07-29T12:36:34;101132.16;;;23.49;55.01
64343;BME280;50675;53.530;-6.312;2022-07-29T12:39:08;101121.75;;;23.38;55.23
64343;BME280;50675;53.530;-6.312;2022-07-29T12:41:37;101121.25;;;23.36;54.54
64343;BME280;50675;53.530;-6.312;2022-07-29T12:44:19;101119.94;;;23.33;54.83
64343;BME280;50675;53.530;-6.312;2022-07-29T12:47:21;101124.16;;;23.39;54.55
64343;BME280;50675;53.530;-6.312;2022-07-29T12:50:27;101133.41;;;23.35;54.42
64343;BME280;50675;53.530;-6.312;2022-07-29T12:57:24;101116.88;;;23.35;54.66
64343;BME280;50675;53.530;-6.312;2022-07-29T13:00:29;101133.41;;;23.43;54.37
64343;BME280;50675;53.530;-6.312;2022-07-29T13:03:11;101126.75;;;23.36;54.14
64343;BME280;50675;53.530;-6.312;2022-07-29T13:10:19;101118.78;;;23.17;54.34
64343;BME280;50675;53.530;-6.312;2022-07-29T13:40:48;101105.09;;;22.55;54.17
64343;BME280;50675;53.530;-6.312;2022-07-29T13:55:06;101097.78;;;22.82;54.29
64343;BME280;50675;53.530;-6.312;2022-07-29T14:02:40;101101.91;;;23.10;54.21
64343;BME280;50675;53.530;-6.312;2022-07-29T14:25:01;101073.72;;;23.90;54.10
64343;BME280;50675;53.530;-6.312;2022-07-29T14:27:27;101071.59;;;24.05;54.08
64343;BME280;50675;53.530;-6.312;2022-07-29T14:29:52;101065.09;;;24.09;54.00
64343;BME280;50675;53.530;-6.312;2022-07-29T14:32:18;101066.53;;;24.15;54.11
64343;BME280;50675;53.530;-6.312;2022-07-29T14:34:44;101078.25;;;24.21;53.68
64343;BME280;50675;53.530;-6.312;2022-07-29T14:37:09;101081.31;;;24.28;53.44
64343;BME280;50675;53.530;-6.312;2022-07-29T14:39:35;101077.88;;;24.31;53.29
64343;BME280;50675;53.530;-6.312;2022-07-29T14:42:01;101086.13;;;24.39;53.05
64343;BME280;50675;53.530;-6.312;2022-07-29T14:44:27;101080.13;;;24.46;53.18
64343;BME280;50675;53.530;-6.312;2022-07-29T14:46:57;101075.69;;;24.54;53.35
64343;BME280;50675;53.530;-6.312;2022-07-29T14:49:25;101072.56;;;24.64;52.69
64343;BME280;50675;53.530;-6.312;2022-07-29T14:51:51;101065.34;;;24.71;52.81
64343;BME280;50675;53.530;-6.312;2022-07-29T14:54:17;101069.38;;;24.82;52.62
64343;BME280;50675;53.530;-6.312;2022-07-29T14:56:43;101066.25;;;24.93;52.71
64343;BME280;50675;53.530;-6.312;2022-07-29T14:59:08;101072.72;;;24.97;52.17